createdAt,value
2023-02-13T00:00:22.669Z,100458.59
2023-02-13T00:02:49.321Z,100471.50
2023-02-13T00:05:15.962Z,100444.94
2023-02-13T00:07:42.716Z,100451.66
2023-02-13T00:10:09.789Z,100441.91
2023-02-13T00:12:36.764Z,100450.41
2023-02-13T00:15:04.146Z,100445.13
2023-02-13T00:17:30.747Z,100436.34
2023-02-13T00:19:57.765Z,100402.91
2023-02-13T00:22:24.650Z,100446.16
2023-02-13T00:24:51.462Z,100446.91
2023-02-13T00:27:18.449Z,100441.00
2023-02-13T00:29:45.093Z,100450.41
2023-02-13T00:32:12.043Z,100422.03
2023-02-13T00:34:38.791Z,100456.59
2023-02-13T00:37:05.499Z,100435.88
2023-02-13T00:39:32.035Z,100454.81
2023-02-13T00:41:58.666Z,100418.72
2023-02-13T00:44:25.410Z,100435.66
2023-02-13T00:46:52.010Z,100413.38
2023-02-13T00:49:18.585Z,100410.59
2023-02-13T00:51:45.257Z,100406.41
2023-02-13T00:54:11.766Z,100423.47
2023-02-13T00:56:38.464Z,100402.63
2023-02-13T00:59:06.121Z,100435.50
2023-02-13T01:01:32.808Z,100423.25
2023-02-13T01:03:59.909Z,100405.16
2023-02-13T01:06:27.633Z,100415.47
2023-02-13T01:08:54.364Z,100414.44
2023-02-13T01:11:21.142Z,100409.91
2023-02-13T01:13:47.792Z,100407.41
2023-02-13T01:16:15.950Z,100390.19
2023-02-13T01:18:42.581Z,100374.66
2023-02-13T01:21:16.495Z,100396.13
2023-02-13T01:23:43.111Z,100393.53
2023-02-13T01:26:16.554Z,100383.19
2023-02-13T01:28:43.310Z,100382.34
2023-02-13T01:31:11.375Z,100401.16
2023-02-13T01:33:38.074Z,100402.06
2023-02-13T01:36:10.175Z,100386.25
2023-02-13T01:38:38.235Z,100382.78
2023-02-13T01:41:04.998Z,100374.31
2023-02-13T01:43:54.115Z,100383.56
2023-02-13T01:46:50.425Z,100384.47
2023-02-13T01:49:20.938Z,100373.16
2023-02-13T01:51:49.791Z,100374.78
2023-02-13T01:54:22.575Z,100343.16
2023-02-13T01:56:55.557Z,100341.22
2023-02-13T01:59:33.405Z,100364.25
2023-02-13T02:02:01.447Z,100338.34
2023-02-13T02:04:38.296Z,100321.28
2023-02-13T02:07:18.969Z,100355.69
2023-02-13T02:09:48.013Z,100365.09
2023-02-13T02:12:24.319Z,100318.53
2023-02-13T02:14:53.924Z,100354.53
2023-02-13T02:17:23.746Z,100349.25
2023-02-13T02:20:24.536Z,100343.91
2023-02-13T02:23:04.512Z,100341.34
2023-02-13T02:25:38.978Z,100341.34
2023-02-13T02:28:21.716Z,100342.22
2023-02-13T02:31:00.767Z,100331.69
2023-02-13T02:33:45.939Z,100356.25
2023-02-13T02:36:22.954Z,100351.91
2023-02-13T02:38:58.585Z,100352.78
2023-02-13T02:41:45.559Z,100363.31
2023-02-13T02:44:35.616Z,100353.63
2023-02-13T02:47:43.175Z,100358.06
2023-02-13T02:50:32.758Z,100333.91
2023-02-13T02:53:14.528Z,100345.72
2023-02-13T02:55:43.606Z,100330.94
2023-02-13T02:58:30.191Z,100335.16
2023-02-13T03:01:19.725Z,100338.63
2023-02-13T03:04:06.137Z,100313.72
2023-02-13T03:06:46.345Z,100328.22
2023-02-13T03:09:37.541Z,100333.38
2023-02-13T03:12:23.262Z,100353.56
2023-02-13T03:14:49.934Z,100342.38
2023-02-13T03:17:37.796Z,100339.75
2023-02-13T03:20:52.234Z,100342.16
2023-02-13T03:24:11.323Z,100350.06
2023-02-13T03:26:50.362Z,100345.66
2023-02-13T03:29:51.615Z,100350.91
2023-02-13T03:32:32.441Z,100338.84
2023-02-13T03:35:27.840Z,100353.56
2023-02-13T03:38:01.118Z,100353.56
2023-02-13T03:40:59.835Z,100356.19
2023-02-13T03:43:29.879Z,100344.91
2023-02-13T03:45:58.066Z,100346.84
2023-02-13T03:48:49.915Z,100354.41
2023-02-13T03:51:23.673Z,100359.69
2023-02-13T03:53:54.742Z,100364.09
2023-02-13T03:56:40.520Z,100341.88
2023-02-13T03:59:18.882Z,100329.75
2023-02-13T04:01:51.585Z,100372.03
2023-02-13T04:04:35.642Z,100358.16
2023-02-13T04:07:10.614Z,100360.63
2023-02-13T04:09:39.983Z,100335.00
2023-02-13T04:12:45.030Z,100371.06
2023-02-13T04:15:20.514Z,100372.03
2023-02-13T04:17:53.852Z,100366.75
2023-02-13T04:20:20.726Z,100368.50
2023-02-13T04:22:48.371Z,100364.09
2023-02-13T04:25:17.886Z,100358.97
2023-02-13T04:27:44.609Z,100362.31
2023-02-13T04:30:12.362Z,100363.22
2023-02-13T04:32:38.921Z,100331.38
2023-02-13T04:35:06.042Z,100349.31
2023-02-13T04:37:32.637Z,100351.06
2023-02-13T04:39:59.279Z,100363.22
2023-02-13T04:42:25.925Z,100337.28
2023-02-13T04:44:52.500Z,100321.91
2023-02-13T04:47:18.990Z,100356.19
2023-02-13T04:49:45.757Z,100346.75
2023-02-13T04:52:12.334Z,100362.31
2023-02-13T04:54:38.930Z,100349.41
2023-02-13T04:57:05.491Z,100363.22
2023-02-13T04:59:32.377Z,100357.06
2023-02-13T05:01:59.344Z,100369.38
2023-02-13T05:04:26.165Z,100353.56
2023-02-13T05:06:52.859Z,100361.47
2023-02-13T05:09:19.466Z,100364.09
2023-02-13T05:11:46.026Z,100362.31
2023-02-13T05:14:12.809Z,100363.31
2023-02-13T05:16:39.353Z,100364.09
2023-02-13T05:19:06.076Z,100360.59
2023-02-13T05:21:51.412Z,100355.50
2023-02-13T05:24:20.368Z,100357.97
2023-02-13T05:26:47.404Z,100353.56
2023-02-13T05:29:20.128Z,100346.09
2023-02-13T05:31:48.411Z,100363.25
2023-02-13T05:34:16.308Z,100367.63
2023-02-13T05:36:43.107Z,100349.41
2023-02-13T05:39:09.765Z,100363.25
2023-02-13T05:41:36.463Z,100366.75
2023-02-13T05:44:03.543Z,100357.97
2023-02-13T05:46:30.169Z,100333.81
2023-02-13T05:48:56.800Z,100347.66
2023-02-13T05:51:23.625Z,100341.75
2023-02-13T05:53:50.159Z,100338.34
2023-02-13T05:56:16.831Z,100329.81
2023-02-13T05:58:45.117Z,100346.34
2023-02-13T06:01:11.883Z,100317.84
2023-02-13T06:03:40.210Z,100372.91
2023-02-13T06:06:07.497Z,100370.25
2023-02-13T06:08:34.180Z,100308.38
2023-02-13T06:11:01.864Z,100370.25
2023-02-13T06:13:28.641Z,100379.09
2023-02-13T06:15:58.103Z,100374.66
2023-02-13T06:18:24.996Z,100339.47
2023-02-13T06:20:51.678Z,100370.28
2023-02-13T06:23:18.432Z,100349.63
2023-02-13T06:25:44.985Z,100380.84
2023-02-13T06:28:11.670Z,100383.47
2023-02-13T06:30:38.294Z,100377.53
2023-02-13T06:33:04.931Z,100388.75
2023-02-13T06:35:32.328Z,100390.63
2023-02-13T06:37:58.896Z,100343.22
2023-02-13T06:40:25.813Z,100376.03
2023-02-13T06:42:52.722Z,100398.47
2023-02-13T06:45:19.463Z,100404.66
2023-02-13T06:47:48.742Z,100404.66
2023-02-13T06:50:18.243Z,100387.53
2023-02-13T06:52:52.193Z,100295.50
2023-02-13T06:55:19.278Z,100395.22
2023-02-13T06:57:46.079Z,100409.38
2023-02-13T07:00:14.596Z,100358.91
2023-02-13T07:02:43.107Z,100365.69
2023-02-13T07:05:11.521Z,100398.69
2023-02-13T07:07:40.964Z,100403.72
2023-02-13T07:10:10.525Z,100413.44
2023-02-13T07:12:37.270Z,100406.38
2023-02-13T07:15:05.027Z,100409.00
2023-02-13T07:17:32.365Z,100408.16
2023-02-13T07:19:59.265Z,100409.06
2023-02-13T07:22:25.903Z,100398.63
2023-02-13T07:24:52.648Z,100406.44
2023-02-13T07:27:19.216Z,100408.19
2023-02-13T07:29:45.885Z,100385.81
2023-02-13T07:32:12.647Z,100328.09
2023-02-13T07:34:44.456Z,100255.75
2023-02-13T07:37:16.099Z,100349.53
2023-02-13T07:39:42.894Z,100362.38
2023-02-13T07:42:09.745Z,100358.72
2023-02-13T07:44:37.001Z,100390.72
2023-02-13T07:47:04.257Z,100354.53
2023-02-13T07:49:30.937Z,100239.25
2023-02-13T07:51:58.496Z,100391.63
2023-02-13T07:54:25.103Z,100363.28
2023-02-13T07:56:51.832Z,100356.34
2023-02-13T07:59:18.459Z,100389.22
2023-02-13T08:01:45.125Z,100376.09
2023-02-13T08:04:11.789Z,100334.72
2023-02-13T08:06:42.567Z,100353.47
2023-02-13T08:09:39.529Z,100349.88
2023-02-13T08:12:09.128Z,100345.56
2023-02-13T08:14:38.788Z,100409.22
2023-02-13T08:17:05.346Z,100390.47
2023-02-13T08:19:32.032Z,100350.53
2023-02-13T08:21:58.732Z,100360.94
2023-02-13T08:24:25.413Z,100376.34
2023-02-13T08:26:52.124Z,100330.16
2023-02-13T08:29:18.799Z,100312.81
2023-02-13T08:31:45.685Z,100391.09
2023-02-13T08:34:12.553Z,100388.41
2023-02-13T08:36:39.279Z,100396.28
2023-02-13T08:39:06.091Z,100389.16
2023-02-13T08:41:32.813Z,100400.53
2023-02-13T08:43:59.381Z,100346.00
2023-02-13T08:46:26.083Z,100371.59
2023-02-13T08:48:52.760Z,100394.13
2023-02-13T08:51:19.461Z,100383.53
2023-02-13T08:53:46.191Z,100313.69
2023-02-13T08:56:13.099Z,100289.53
2023-02-13T08:59:58.904Z,100376.25
2023-02-13T09:02:25.769Z,100372.75
2023-02-13T09:04:52.392Z,100372.59
2023-02-13T09:07:19.068Z,100371.03
2023-02-13T09:09:45.676Z,100378.56
2023-02-13T09:12:13.499Z,100375.03
2023-02-13T09:14:40.690Z,100363.97
2023-02-13T09:17:07.332Z,100377.56
2023-02-13T09:19:35.310Z,100380.94
2023-02-13T09:22:01.923Z,100360.31
2023-02-13T09:24:28.673Z,100371.22
2023-02-13T09:26:56.683Z,100377.25
2023-02-13T09:29:23.784Z,100343.72
2023-02-13T09:31:50.787Z,100372.78
2023-02-13T09:34:17.667Z,100349.75
2023-02-13T09:36:44.188Z,100314.53
2023-02-13T09:39:10.917Z,100377.00
2023-02-13T09:41:40.964Z,100377.00
2023-02-13T09:44:34.110Z,100377.81
2023-02-13T09:47:16.244Z,100369.16
2023-02-13T09:49:48.645Z,100371.13
2023-02-13T09:52:18.044Z,100390.88
2023-02-13T09:54:44.811Z,100363.31
2023-02-13T09:57:20.110Z,100387.25
2023-02-13T10:00:11.865Z,100391.63
2023-02-13T10:02:47.882Z,100384.59
2023-02-13T10:05:31.762Z,100382.78
2023-02-13T10:08:12.861Z,100361.31
2023-02-13T10:11:05.071Z,100341.53
2023-02-13T10:13:50.147Z,100369.41
2023-02-13T10:16:23.409Z,100368.50
2023-02-13T10:18:56.205Z,100356.16
2023-02-13T10:24:45.961Z,100341.88
2023-02-13T10:27:19.290Z,100340.97
2023-02-13T10:30:12.610Z,100347.06
2023-02-13T10:32:52.209Z,100334.69
2023-02-13T10:35:27.361Z,100332.88
2023-02-13T10:37:57.206Z,100335.44
2023-02-13T10:40:32.192Z,100330.97
2023-02-13T10:42:58.715Z,100329.16
2023-02-13T10:45:58.144Z,100302.50
2023-02-13T10:49:01.380Z,100323.88
2023-02-13T10:52:11.370Z,100321.16
2023-02-13T10:55:08.506Z,100322.00
2023-02-13T10:57:57.972Z,100310.47
2023-02-13T11:00:42.837Z,100310.69
2023-02-13T11:03:21.984Z,100299.41
2023-02-13T11:05:49.959Z,100319.19
2023-02-13T11:08:24.409Z,100310.34
2023-02-13T11:10:52.268Z,100312.16
2023-02-13T11:13:27.519Z,100305.91
2023-02-13T11:16:07.314Z,100298.88
2023-02-13T11:18:41.020Z,100293.59
2023-02-13T11:21:21.939Z,100295.31
2023-02-13T11:23:56.261Z,100299.63
2023-02-13T11:26:31.726Z,100297.88
2023-02-13T11:29:04.212Z,100299.59
2023-02-13T11:31:36.855Z,100281.63
2023-02-13T11:34:26.301Z,100303.88
2023-02-13T11:37:14.788Z,100307.38
2023-02-13T11:39:42.691Z,100305.63
2023-02-13T11:42:35.637Z,100307.38
2023-02-13T11:45:24.080Z,100314.31
2023-02-13T11:47:51.958Z,100298.53
2023-02-13T11:50:24.342Z,100300.19
2023-02-13T11:53:22.945Z,100311.56
2023-02-13T11:56:13.632Z,100275.94
2023-02-13T11:58:41.273Z,100292.16
2023-02-13T12:01:20.105Z,100294.78
2023-02-13T12:04:28.218Z,100295.56
2023-02-13T12:07:12.502Z,100284.41
2023-02-13T12:09:43.992Z,100287.72
2023-02-13T12:12:18.573Z,100272.72
2023-02-13T12:14:46.276Z,100261.44
2023-02-13T12:17:30.701Z,100262.16
2023-02-13T12:19:59.210Z,100254.25
2023-02-13T12:22:50.714Z,100248.00
2023-02-13T12:25:39.520Z,100257.72
2023-02-13T12:28:17.272Z,100262.16
2023-02-13T12:31:09.145Z,100264.81
2023-02-13T12:34:00.426Z,100261.22
2023-02-13T12:36:43.200Z,100240.69
2023-02-13T12:39:12.763Z,100254.25
2023-02-13T12:41:58.218Z,100250.72
2023-02-13T12:44:45.904Z,100251.59
2023-02-13T12:47:27.422Z,100245.44
2023-02-13T12:50:28.771Z,100241.03
2023-02-13T12:53:20.526Z,100243.66
2023-02-13T12:56:18.558Z,100247.22
2023-02-13T12:59:00.309Z,100245.50
2023-02-13T13:02:07.251Z,100249.91
2023-02-13T13:05:02.437Z,100253.50
2023-02-13T13:07:31.781Z,100252.63
2023-02-13T13:10:38.752Z,100252.63
2023-02-13T13:13:12.957Z,100257.06
2023-02-13T13:16:02.159Z,100258.00
2023-02-13T13:18:53.645Z,100257.16
2023-02-13T13:21:44.954Z,100247.41
2023-02-13T13:24:49.939Z,100244.84
2023-02-13T13:27:24.742Z,100250.97
2023-02-13T13:30:01.881Z,100249.22
2023-02-13T13:32:30.462Z,100240.41
2023-02-13T13:34:58.097Z,100236.84
2023-02-13T13:37:46.613Z,100242.13
2023-02-13T13:40:49.376Z,100239.50
2023-02-13T13:43:27.799Z,100241.22
2023-02-13T13:46:12.138Z,100244.72
2023-02-13T13:49:05.726Z,100248.22
2023-02-13T13:51:32.535Z,100244.72
2023-02-13T13:54:08.156Z,100252.63
2023-02-13T13:56:53.262Z,100242.06
2023-02-13T13:59:51.771Z,100239.34
2023-02-13T14:02:18.401Z,100233.22
2023-02-13T14:05:18.786Z,100225.22
2023-02-13T14:07:47.528Z,100228.75
2023-02-13T14:10:26.278Z,100225.22
2023-02-13T14:12:55.764Z,100218.22
2023-02-13T14:15:34.532Z,100222.56
2023-02-13T14:18:14.110Z,100217.28
2023-02-13T14:20:50.680Z,100211.16
2023-02-13T14:23:32.379Z,100209.38
2023-02-13T14:26:17.160Z,100214.66
2023-02-13T14:28:57.547Z,100205.88
2023-02-13T14:31:31.901Z,100211.09
2023-02-13T14:34:05.445Z,100203.25
2023-02-13T14:36:37.991Z,100199.69
2023-02-13T14:39:18.367Z,100182.22
2023-02-13T14:41:58.655Z,100185.53
2023-02-13T14:44:51.318Z,100182.91
2023-02-13T14:47:56.668Z,100170.53
2023-02-13T14:50:32.620Z,100173.19
2023-02-13T14:53:05.034Z,100160.81
2023-02-13T14:55:36.397Z,100149.88
2023-02-13T14:58:10.867Z,100166.09
2023-02-13T15:00:45.894Z,100168.69
2023-02-13T15:03:28.097Z,100171.34
2023-02-13T15:06:02.952Z,100143.59
2023-02-13T15:08:36.799Z,100182.75
2023-02-13T15:11:03.702Z,100153.44
2023-02-13T15:13:37.281Z,100142.81
2023-02-13T15:16:08.636Z,100159.91
2023-02-13T15:18:41.634Z,100159.91
2023-02-13T15:21:15.091Z,100158.13
2023-02-13T15:23:42.998Z,100158.16
2023-02-13T15:26:19.012Z,100130.66
2023-02-13T15:29:01.893Z,100141.59
2023-02-13T15:31:33.510Z,100161.81
2023-02-13T15:34:01.240Z,100137.59
2023-02-13T15:36:36.297Z,100165.38
2023-02-13T15:39:09.509Z,100169.81
2023-02-13T15:41:43.698Z,100173.38
2023-02-13T15:44:18.366Z,100158.00
2023-02-13T15:46:48.307Z,100165.66
2023-02-13T15:49:20.922Z,100167.44
2023-02-13T15:51:50.528Z,100149.59
2023-02-13T15:54:30.161Z,100199.03
2023-02-13T15:57:00.151Z,100199.94
2023-02-13T15:59:33.963Z,100175.84
2023-02-13T16:02:03.401Z,100176.72
2023-02-13T16:04:31.014Z,100170.56
2023-02-13T16:06:58.902Z,100148.88
2023-02-13T16:09:30.793Z,100166.19
2023-02-13T16:12:01.616Z,100153.44
2023-02-13T16:14:31.695Z,100193.03
2023-02-13T16:17:00.234Z,100175.06
2023-02-13T16:19:26.908Z,100193.94
2023-02-13T16:21:57.238Z,100190.75
2023-02-13T16:24:25.773Z,100191.84
2023-02-13T16:26:52.784Z,100208.97
2023-02-13T16:29:22.424Z,100208.97
2023-02-13T16:31:52.710Z,100197.88
2023-02-13T16:34:28.863Z,100184.00
2023-02-13T16:36:56.441Z,100192.97
2023-02-13T16:39:27.774Z,100213.63
2023-02-13T16:41:54.726Z,100218.91
2023-02-13T16:44:23.614Z,100209.47
2023-02-13T16:46:53.651Z,100229.31
2023-02-13T16:49:23.835Z,100220.72
2023-02-13T16:51:55.184Z,100213.72
2023-02-13T16:54:24.889Z,100203.84
2023-02-13T16:57:19.699Z,100195.94
2023-02-13T17:00:24.507Z,100186.22
2023-02-13T17:02:51.995Z,100160.22
2023-02-13T17:05:27.650Z,100172.16
2023-02-13T17:08:00.392Z,100184.38
2023-02-13T17:10:35.700Z,100192.28
2023-02-13T17:13:13.267Z,100185.28
2023-02-13T17:15:44.542Z,100186.13
2023-02-13T17:18:11.282Z,100176.50
2023-02-13T17:20:41.346Z,100166.72
2023-02-13T17:23:17.441Z,100167.16
2023-02-13T17:25:46.236Z,100166.72
2023-02-13T17:28:15.595Z,100149.03
2023-02-13T17:30:43.535Z,100163.97
2023-02-13T17:33:25.112Z,100157.72
2023-02-13T17:35:53.404Z,100148.13
2023-02-13T17:38:20.517Z,100167.38
2023-02-13T17:40:47.809Z,100187.59
2023-02-13T17:43:16.899Z,100184.09
2023-02-13T17:45:43.831Z,100168.16
2023-02-13T17:48:10.803Z,100182.19
2023-02-13T17:50:38.247Z,100180.47
2023-02-13T17:53:07.700Z,100188.38
2023-02-13T17:55:37.542Z,100146.94
2023-02-13T17:58:04.259Z,100169.00
2023-02-13T18:00:33.055Z,100184.88
2023-02-13T18:03:00.885Z,100196.31
2023-02-13T18:05:28.593Z,100205.06
2023-02-13T18:07:55.557Z,100195.50
2023-02-13T18:10:27.986Z,100182.19
2023-02-13T18:12:57.015Z,100189.22
2023-02-13T18:15:24.317Z,100176.91
2023-02-13T18:17:51.190Z,100161.88
2023-02-13T18:20:20.637Z,100161.88
2023-02-13T18:22:50.557Z,100169.50
2023-02-13T18:25:19.242Z,100202.34
2023-02-13T18:27:46.492Z,100198.34
2023-02-13T18:30:17.673Z,100176.75
2023-02-13T18:32:45.668Z,100194.13
2023-02-13T18:35:12.288Z,100191.56
2023-02-13T18:37:39.250Z,100207.00
2023-02-13T18:40:09.939Z,100220.94
2023-02-13T18:42:38.119Z,100208.59
2023-02-13T18:45:04.866Z,100212.16
2023-02-13T18:47:31.690Z,100214.81
2023-02-13T18:52:12.552Z,100224.56
2023-02-13T18:54:39.268Z,100216.06
2023-02-13T18:57:06.314Z,100230.72
2023-02-13T18:59:34.649Z,100219.75
2023-02-13T19:02:03.189Z,100224.56
2023-02-13T19:04:30.770Z,100229.84
2023-02-13T19:06:57.660Z,100245.69
2023-02-13T19:09:24.320Z,100247.50
2023-02-13T19:11:51.615Z,100251.16
2023-02-13T19:14:18.601Z,100257.19
2023-02-13T19:16:45.382Z,100256.53
2023-02-13T19:19:12.075Z,100259.78
2023-02-13T19:21:39.610Z,100258.00
2023-02-13T19:24:17.228Z,100255.63
2023-02-13T19:26:44.557Z,100267.72
2023-02-13T19:29:11.155Z,100226.44
2023-02-13T19:31:39.436Z,100264.19
2023-02-13T19:34:06.348Z,100256.28
2023-02-13T19:36:33.211Z,100264.25
2023-02-13T19:39:04.119Z,100214.22
2023-02-13T19:41:31.197Z,100252.16
2023-02-13T19:43:58.447Z,100256.34
2023-02-13T19:46:27.842Z,100255.47
2023-02-13T19:48:54.583Z,100260.75
2023-02-13T19:51:24.405Z,100265.25
2023-02-13T19:54:06.531Z,100266.03
2023-02-13T19:56:36.479Z,100271.31
2023-02-13T19:59:06.941Z,100261.97
2023-02-13T20:01:33.864Z,100275.75
2023-02-13T20:04:03.565Z,100261.09
2023-02-13T20:06:36.159Z,100218.03
2023-02-13T20:09:09.826Z,100274.91
2023-02-13T20:11:39.181Z,100245.78
2023-02-13T20:14:11.551Z,100292.41
2023-02-13T20:16:39.007Z,100261.47
2023-02-13T20:19:11.765Z,100269.34
2023-02-13T20:21:42.949Z,100297.63
2023-02-13T20:24:12.670Z,100226.22
2023-02-13T20:26:39.744Z,100215.81
2023-02-13T20:29:07.563Z,100247.63
2023-02-13T20:31:35.816Z,100281.94
2023-02-13T20:34:05.980Z,100290.50
2023-02-13T20:36:33.571Z,100293.00
2023-02-13T20:39:03.559Z,100290.50
2023-02-13T20:41:33.506Z,100301.78
2023-02-13T20:44:05.937Z,100281.03
2023-02-13T20:46:35.292Z,100302.50
2023-02-13T20:49:02.223Z,100281.88
2023-02-13T20:51:31.650Z,100291.91
2023-02-13T20:53:59.958Z,100285.06
2023-02-13T20:56:30.516Z,100296.38
2023-02-13T20:58:59.628Z,100282.22
2023-02-13T21:01:32.964Z,100271.06
2023-02-13T21:04:00.112Z,100277.03
2023-02-13T21:06:32.973Z,100280.59
2023-02-13T21:09:00.850Z,100281.50
2023-02-13T21:11:30.938Z,100285.94
2023-02-13T21:13:58.723Z,100272.78
2023-02-13T21:16:28.280Z,100233.22
2023-02-13T21:19:00.304Z,100273.75
2023-02-13T21:21:31.590Z,100272.84
2023-02-13T21:24:08.039Z,100265.84
2023-02-13T21:26:35.681Z,100264.13
2023-02-13T21:29:02.403Z,100262.34
2023-02-13T21:31:35.805Z,100241.75
2023-02-13T21:34:08.822Z,100256.28
2023-02-13T21:36:36.990Z,100256.34
2023-02-13T21:39:06.026Z,100228.22
2023-02-13T21:41:32.800Z,100269.41
2023-02-13T21:43:59.418Z,100191.91
2023-02-13T21:46:29.010Z,100258.84
2023-02-13T21:48:58.630Z,100257.00
2023-02-13T21:51:27.273Z,100267.56
2023-02-13T21:53:57.225Z,100262.22
2023-02-13T21:56:26.817Z,100261.28
2023-02-13T21:58:54.212Z,100269.22
2023-02-13T22:01:27.555Z,100269.13
2023-02-13T22:03:59.840Z,100264.72
2023-02-13T22:06:28.997Z,100243.22
2023-02-13T22:08:57.716Z,100247.50
2023-02-13T22:11:24.770Z,100268.09
2023-02-13T22:13:55.827Z,100205.38
2023-02-13T22:16:22.825Z,100250.88
2023-02-13T22:18:50.650Z,100211.28
2023-02-13T22:21:20.656Z,100117.09
2023-02-13T22:23:48.644Z,100222.59
2023-02-13T22:26:20.770Z,100215.38
2023-02-13T22:28:48.239Z,100259.25
2023-02-13T22:31:15.618Z,100263.59
2023-02-13T22:33:42.967Z,100231.09
2023-02-13T22:36:12.722Z,100261.09
2023-02-13T22:38:40.952Z,100185.44
2023-02-13T22:41:12.264Z,100244.63
2023-02-13T22:43:39.500Z,100226.47
2023-02-13T22:46:27.412Z,100236.69
2023-02-13T22:48:54.919Z,100190.09
2023-02-13T22:51:24.715Z,100218.63
2023-02-13T22:53:56.504Z,100242.00
2023-02-13T22:56:24.560Z,100263.53
2023-02-13T22:58:51.262Z,100235.22
2023-02-13T23:01:20.815Z,100257.34
2023-02-13T23:03:47.688Z,100250.44
2023-02-13T23:06:15.929Z,100259.97
2023-02-13T23:08:42.874Z,100252.91
2023-02-13T23:11:31.927Z,100254.69
2023-02-13T23:13:59.136Z,100266.13
2023-02-13T23:16:26.502Z,100195.47
2023-02-13T23:18:56.100Z,100245.16
2023-02-13T23:21:23.716Z,100257.25
2023-02-13T23:23:50.659Z,100225.38
2023-02-13T23:26:18.180Z,100259.03
2023-02-13T23:28:44.807Z,100247.81
2023-02-13T23:31:11.632Z,100240.06
2023-02-13T23:33:38.256Z,100222.72
2023-02-13T23:36:05.324Z,100215.91
2023-02-13T23:38:31.851Z,100247.53
2023-02-13T23:41:06.367Z,100229.50
2023-02-13T23:43:33.004Z,100241.69
2023-02-13T23:45:59.621Z,100232.75
2023-02-13T23:48:26.411Z,100217.09
2023-02-13T23:50:53.206Z,100235.97
2023-02-13T23:53:22.693Z,100229.91
2023-02-13T23:55:49.477Z,100220.38
2023-02-13T23:58:16.023Z,100191.78
